Time;durP1;ratioP1;P1;durP2;ratioP2;P2;SDS_P1;SDS_P2;PMS_P1;PMS_P2;Temp;Humidity;BMP_temperature;BMP_pressure;BME280_temperature;BME280_humidity;BME280_pressure;Samples;Min_cycle;Max_cycle;Signal;HPM_P1;HPM_P2
2021/06/11 00:01:57;;;;;;;3.77;3.47;;;21.60;1.00;;;;;;5078399;28;20972;-70
2021/06/11 00:04:23;;;;;;;4.43;4.13;;;21.60;1.00;;;;;;5077942;28;20504;-70
2021/06/11 00:06:49;;;;;;;4.10;3.80;;;21.50;1.00;;;;;;5078183;28;20457;-70
2021/06/11 00:09:17;;;;;;;3.97;3.67;;;21.40;1.00;;;;;;5077783;28;20454;-69
2021/06/11 00:11:44;;;;;;;3.60;3.37;;;21.40;1.00;;;;;;5078013;28;20450;-68
2021/06/11 00:14:12;;;;;;;4.83;4.10;;;21.40;1.00;;;;;;5077795;28;20458;-69
2021/06/11 00:16:40;;;;;;;4.00;3.70;;;21.40;1.00;;;;;;5077948;28;20478;-68
2021/06/11 00:19:06;;;;;;;3.83;3.50;;;21.40;1.00;;;;;;5077977;28;20515;-69
2021/06/11 00:21:32;;;;;;;4.00;3.60;;;21.40;1.00;;;;;;5077691;28;20458;-70
2021/06/11 00:24:03;;;;;;;3.83;3.53;;;21.30;1.00;;;;;;5077214;28;20482;-70
2021/06/11 00:26:29;;;;;;;4.03;3.63;;;21.40;1.00;;;;;;5077461;28;20453;-68
2021/06/11 00:28:55;;;;;;;4.20;3.80;;;21.30;1.00;;;;;;5077270;28;20482;-69
2021/06/11 00:31:21;;;;;;;3.93;3.63;;;21.30;1.00;;;;;;5077260;28;20938;-69
2021/06/11 00:33:49;;;;;;;4.53;3.50;;;21.30;1.00;;;;;;5077309;28;20458;-70
2021/06/11 00:36:15;;;;;;;3.93;3.63;;;21.30;1.00;;;;;;5077263;28;20474;-70
2021/06/11 00:38:42;;;;;;;3.23;2.90;;;21.30;1.00;;;;;;5077359;28;21028;-70
2021/06/11 00:41:08;;;;;;;3.63;3.33;;;21.30;1.00;;;;;;5077180;28;20458;-70
2021/06/11 00:43:34;;;;;;;3.60;3.30;;;21.30;1.00;;;;;;5077180;28;20526;-69
2021/06/11 00:46:00;;;;;;;4.17;3.47;;;21.30;1.00;;;;;;5077414;28;20455;-69
2021/06/11 00:48:26;;;;;;;3.83;3.50;;;21.40;1.00;;;;;;5077342;28;20497;-69
2021/06/11 00:50:54;;;;;;;4.63;3.33;;;21.40;1.00;;;;;;5076875;28;20477;-69
2021/06/11 00:53:20;;;;;;;4.40;3.67;;;21.40;1.00;;;;;;5077026;28;20465;-69
2021/06/11 00:55:47;;;;;;;3.57;3.27;;;21.40;1.00;;;;;;5076901;28;20539;-69
2021/06/11 00:58:17;;;;;;;4.73;3.70;;;21.40;1.00;;;;;;5077075;28;20485;-69
2021/06/11 01:00:44;;;;;;;3.83;3.40;;;21.40;1.00;;;;;;5077094;28;20464;-69
2021/06/11 01:03:12;;;;;;;4.20;3.83;;;21.40;1.00;;;;;;5077110;28;20454;-69
2021/06/11 01:05:40;;;;;;;4.10;3.80;;;21.40;1.00;;;;;;5078091;28;20854;-68
2021/06/11 01:08:08;;;;;;;4.07;3.67;;;21.40;1.00;;;;;;5077886;28;20615;-69
2021/06/11 01:10:35;;;;;;;3.87;3.47;;;21.40;1.00;;;;;;5076726;28;20458;-69
2021/06/11 01:13:01;;;;;;;3.57;3.27;;;21.40;1.00;;;;;;5076711;28;20458;-69
2021/06/11 01:15:28;;;;;;;5.67;3.77;;;21.40;1.00;;;;;;5076756;28;20562;-69
2021/06/11 01:17:54;;;;;;;4.20;3.90;;;21.40;1.00;;;;;;5076882;28;20454;-69
2021/06/11 01:20:22;;;;;;;4.30;3.40;;;21.40;1.00;;;;;;5076681;28;20458;-69
2021/06/11 01:23:04;;;;;;;3.90;3.57;;;21.40;1.00;;;;;;5076547;28;20493;-68
2021/06/11 01:25:41;;;;;;;3.63;3.33;;;21.50;1.00;;;;;;5076458;28;20439;-69
2021/06/11 01:28:10;;;;;;;4.10;3.70;;;21.50;1.00;;;;;;5076622;28;20446;-68
2021/06/11 01:30:37;;;;;;;3.63;3.33;;;21.50;1.00;;;;;;5076471;28;20797;-69
2021/06/11 01:33:04;;;;;;;3.43;3.20;;;21.50;1.00;;;;;;5076820;28;20450;-69
2021/06/11 01:35:39;;;;;;;3.87;3.57;;;21.50;1.00;;;;;;5077810;28;20494;-70
2021/06/11 01:38:07;;;;;;;4.33;3.33;;;21.50;1.00;;;;;;5080034;28;20449;-70
2021/06/11 01:40:35;;;;;;;4.10;3.40;;;21.50;1.00;;;;;;5079541;28;20501;-70
2021/06/11 01:43:02;;;;;;;4.93;4.40;;;21.50;1.00;;;;;;5081048;28;20517;-69
2021/06/11 01:45:33;;;;;;;4.00;3.70;;;21.40;1.00;;;;;;5081581;28;20777;-70
2021/06/11 01:48:02;;;;;;;4.20;3.07;;;21.40;1.00;;;;;;5082148;28;20468;-70
2021/06/11 01:50:31;;;;;;;3.70;3.40;;;21.50;1.00;;;;;;5079626;28;20460;-70
2021/06/11 01:53:00;;;;;;;3.80;3.47;;;21.40;1.00;;;;;;5079782;28;20454;-70
2021/06/11 01:55:27;;;;;;;3.97;3.37;;;21.40;1.00;;;;;;5081371;28;20458;-70
2021/06/11 01:57:54;;;;;;;4.10;3.40;;;21.40;1.00;;;;;;5081281;28;20458;-70
2021/06/11 02:00:20;;;;;;;4.73;4.33;;;21.40;1.00;;;;;;5081481;28;20454;-70
2021/06/11 02:02:48;;;;;;;5.20;3.83;;;21.40;1.00;;;;;;5081378;28;20495;-70
2021/06/11 02:05:16;;;;;;;4.80;4.40;;;21.30;1.00;;;;;;5081963;28;20455;-70
2021/06/11 02:07:47;;;;;;;4.23;3.93;;;21.30;1.00;;;;;;5082241;28;20458;-70
2021/06/11 02:10:16;;;;;;;3.90;3.60;;;21.30;1.00;;;;;;5081966;28;20440;-70
2021/06/11 02:12:43;;;;;;;3.80;3.53;;;21.30;1.00;;;;;;5082133;28;20560;-70
2021/06/11 02:15:11;;;;;;;4.33;3.97;;;21.30;1.00;;;;;;5081431;28;20952;-69
2021/06/11 02:17:39;;;;;;;4.73;3.60;;;21.30;1.00;;;;;;5082096;28;20509;-69
2021/06/11 02:20:10;;;;;;;4.20;3.80;;;21.20;1.00;;;;;;5082808;28;20450;-69
2021/06/11 02:22:38;;;;;;;4.40;4.00;;;21.30;1.00;;;;;;5082765;28;20482;-69
2021/06/11 02:25:07;;;;;;;5.10;4.33;;;21.30;1.00;;;;;;5081946;28;20545;-69
2021/06/11 02:27:36;;;;;;;4.73;4.37;;;21.30;1.00;;;;;;5080548;28;20441;-69
2021/06/11 02:30:04;;;;;;;4.60;4.20;;;21.30;1.00;;;;;;5081209;28;20457;-69
2021/06/11 02:32:34;;;;;;;4.93;4.33;;;21.30;1.00;;;;;;5077546;28;20461;-69
2021/06/11 02:35:01;;;;;;;4.40;4.00;;;21.30;1.00;;;;;;5076315;28;20583;-69
2021/06/11 02:37:31;;;;;;;5.30;4.80;;;21.20;1.00;;;;;;5079079;28;20478;-69
2021/06/11 02:39:58;;;;;;;4.57;4.10;;;21.20;1.00;;;;;;5082439;28;20863;-69
2021/06/11 02:42:27;;;;;;;4.90;4.40;;;21.20;1.00;;;;;;5081529;28;20458;-69
2021/06/11 02:44:57;;;;;;;4.03;3.73;;;21.20;1.00;;;;;;5082065;28;20458;-69
2021/06/11 02:47:30;;;;;;;4.17;3.77;;;21.20;1.00;;;;;;5081659;28;20929;-69
2021/06/11 02:49:59;;;;;;;5.30;4.60;;;21.20;1.00;;;;;;5082256;28;20443;-69
2021/06/11 02:52:30;;;;;;;5.00;3.60;;;21.30;1.00;;;;;;5081469;28;20549;-69
2021/06/11 02:55:00;;;;;;;4.37;3.97;;;21.30;1.00;;;;;;5081310;28;20438;-69
2021/06/11 02:57:34;;;;;;;5.33;4.50;;;21.30;1.00;;;;;;5081699;28;20806;-69
2021/06/11 03:00:05;;;;;;;4.53;4.13;;;21.30;1.00;;;;;;5081860;28;20879;-68
2021/06/11 03:02:35;;;;;;;4.23;3.83;;;21.30;1.00;;;;;;5080525;28;20450;-69
2021/06/11 03:05:02;;;;;;;5.03;4.53;;;21.20;1.00;;;;;;5077831;28;20500;-69
2021/06/11 03:07:33;;;;;;;4.80;4.10;;;21.30;1.00;;;;;;5076238;28;20458;-68
2021/06/11 03:10:04;;;;;;;5.83;4.50;;;21.30;1.00;;;;;;5077165;28;20750;-69
2021/06/11 03:12:32;;;;;;;5.77;4.83;;;21.30;1.00;;;;;;5076915;28;20457;-69
2021/06/11 03:14:59;;;;;;;7.87;5.07;;;21.30;1.00;;;;;;5076956;28;20458;-69
2021/06/11 03:17:30;;;;;;;5.20;4.70;;;21.40;1.00;;;;;;5080362;28;20483;-69
2021/06/11 03:20:01;;;;;;;6.50;4.27;;;21.40;1.00;;;;;;5080042;28;20454;-69
2021/06/11 03:22:42;;;;;;;4.90;4.50;;;21.30;1.00;;;;;;5079847;28;20876;-70
2021/06/11 03:25:13;;;;;;;9.40;5.47;;;21.30;1.00;;;;;;5080566;28;20446;-70
2021/06/11 03:27:43;;;;;;;5.70;4.90;;;21.40;1.00;;;;;;5076965;28;20438;-70
2021/06/11 03:30:12;;;;;;;8.87;4.90;;;21.40;1.00;;;;;;5075945;28;20461;-70
2021/06/11 03:32:42;;;;;;;5.37;4.23;;;21.40;1.00;;;;;;5075468;28;20473;-70
2021/06/11 03:35:19;;;;;;;7.80;4.77;;;21.40;1.00;;;;;;5075114;28;20438;-70
2021/06/11 03:37:49;;;;;;;5.80;5.30;;;21.40;1.00;;;;;;5074317;28;20466;-70
2021/06/11 03:40:20;;;;;;;6.17;5.30;;;21.40;1.00;;;;;;5074974;28;20460;-70
2021/06/11 03:42:48;;;;;;;8.30;5.27;;;21.40;1.00;;;;;;5075300;28;20443;-69
2021/06/11 03:45:15;;;;;;;5.97;5.47;;;21.40;1.00;;;;;;5074502;28;20466;-68
2021/06/11 03:47:42;;;;;;;6.17;5.57;;;21.30;1.00;;;;;;5075206;28;20451;-70
2021/06/11 03:50:10;;;;;;;5.70;5.30;;;21.40;1.00;;;;;;5075087;28;20458;-70
2021/06/11 03:52:40;;;;;;;6.27;5.70;;;21.40;1.00;;;;;;5074436;28;20921;-69
2021/06/11 03:55:16;;;;;;;6.80;5.93;;;21.40;1.00;;;;;;5074189;28;20922;-69
2021/06/11 03:57:46;;;;;;;6.30;5.80;;;21.40;1.00;;;;;;5074398;28;20470;-69
2021/06/11 04:00:13;;;;;;;9.70;6.17;;;21.40;1.00;;;;;;5074889;28;20438;-69
2021/06/11 04:02:40;;;;;;;6.40;5.90;;;21.40;1.00;;;;;;5074484;28;20453;-69
2021/06/11 04:05:06;;;;;;;6.80;6.20;;;21.30;1.00;;;;;;5077260;28;20458;-69
2021/06/11 04:07:37;;;;;;;6.60;5.70;;;21.30;1.00;;;;;;5078017;28;20763;-69
2021/06/11 04:10:06;;;;;;;6.57;5.90;;;21.30;1.00;;;;;;5078217;28;20449;-69
2021/06/11 04:12:40;;;;;;;10.03;6.90;;;21.20;13.50;;;;;;5077940;28;20454;-69
2021/06/11 04:15:10;;;;;;;7.13;6.43;;;21.20;47.10;;;;;;5078731;28;20495;-70
2021/06/11 04:17:41;;;;;;;6.73;6.03;;;21.20;70.70;;;;;;5081762;28;20463;-70
2021/06/11 04:20:13;;;;;;;6.83;6.23;;;21.20;99.90;;;;;;5078218;28;20473;-69
2021/06/11 04:22:43;;;;;;;5.90;5.50;;;21.10;99.90;;;;;;5079308;28;20974;-70
2021/06/11 04:25:13;;;;;;;6.77;6.17;;;21.10;99.90;;;;;;5078701;28;20530;-69
2021/06/11 04:27:42;;;;;;;8.63;6.90;;;21.10;99.90;;;;;;5077543;28;20435;-70
2021/06/11 04:30:10;;;;;;;8.73;6.10;;;21.10;99.90;;;;;;5077206;28;20483;-70
2021/06/11 04:32:37;;;;;;;6.23;5.67;;;21.10;99.90;;;;;;5077548;28;20454;-70
2021/06/11 04:35:04;;;;;;;7.03;6.10;;;21.10;99.90;;;;;;5077734;28;20446;-70
2021/06/11 04:37:31;;;;;;;7.43;5.80;;;21.10;96.80;;;;;;5077822;28;20487;-70
2021/06/11 04:39:57;;;;;;;8.03;5.70;;;21.10;97.50;;;;;;5077417;28;20469;-70
2021/06/11 04:42:24;;;;;;;6.20;5.70;;;21.20;32.70;;;;;;5077249;28;20481;-70
2021/06/11 04:44:51;;;;;;;11.83;5.53;;;21.20;36.30;;;;;;5077648;28;20454;-70
2021/06/11 04:47:18;;;;;;;5.70;5.20;;;21.20;22.20;;;;;;5077105;28;20938;-70
2021/06/11 04:49:44;;;;;;;6.60;5.97;;;21.20;26.30;;;;;;5077272;28;20458;-70
2021/06/11 04:52:10;;;;;;;9.10;5.90;;;21.20;11.40;;;;;;5077333;28;20465;-68
2021/06/11 04:54:36;;;;;;;6.53;5.83;;;21.30;1.00;;;;;;5077669;28;20458;-70
2021/06/11 04:57:03;;;;;;;8.83;5.70;;;21.30;1.00;;;;;;5077289;28;21050;-70
2021/06/11 04:59:29;;;;;;;6.20;5.60;;;21.30;17.70;;;;;;5076926;28;20952;-70
2021/06/11 05:01:57;;;;;;;7.33;5.50;;;21.30;40.30;;;;;;5077519;28;20454;-70
2021/06/11 05:04:24;;;;;;;6.23;5.63;;;21.30;9.20;;;;;;5076812;28;20458;-70
2021/06/11 05:06:50;;;;;;;6.00;5.47;;;21.30;1.00;;;;;;5077147;28;20485;-70
2021/06/11 05:09:16;;;;;;;5.30;4.80;;;21.40;1.00;;;;;;5077674;28;20458;-70
2021/06/11 05:11:43;;;;;;;8.13;5.87;;;21.40;1.00;;;;;;5076905;28;20454;-70
2021/06/11 05:14:09;;;;;;;6.30;5.80;;;21.50;9.00;;;;;;5076831;28;20801;-70
2021/06/11 05:16:35;;;;;;;6.17;5.67;;;21.60;4.70;;;;;;5075589;28;20505;-70
2021/06/11 05:19:03;;;;;;;6.10;5.50;;;21.70;1.00;;;;;;5076945;28;20519;-70
2021/06/11 05:21:29;;;;;;;5.90;5.37;;;21.70;1.00;;;;;;5076911;28;20786;-70
2021/06/11 05:23:56;;;;;;;11.53;5.63;;;21.80;1.00;;;;;;5076602;28;20482;-70
2021/06/11 05:26:22;;;;;;;5.47;4.70;;;21.90;1.00;;;;;;5076637;28;20473;-70
2021/06/11 05:28:48;;;;;;;5.50;5.00;;;21.90;1.00;;;;;;5076493;28;20786;-69
2021/06/11 05:31:15;;;;;;;6.40;5.67;;;22.00;1.00;;;;;;5076738;28;20454;-70
2021/06/11 05:33:41;;;;;;;68.37;50.23;;;22.10;1.00;;;;;;5076614;28;20458;-70
2021/06/11 05:36:08;;;;;;;16.43;14.77;;;22.20;1.00;;;;;;5076248;28;20494;-71
2021/06/11 05:38:35;;;;;;;7.30;6.60;;;22.20;1.00;;;;;;5076401;28;20459;-71
2021/06/11 05:41:02;;;;;;;6.47;5.70;;;22.30;1.00;;;;;;5077288;28;20787;-70
2021/06/11 05:43:28;;;;;;;5.33;4.83;;;22.40;1.00;;;;;;5076966;28;20458;-70
2021/06/11 05:45:55;;;;;;;4.37;3.97;;;22.40;1.00;;;;;;5076027;28;20454;-70
2021/06/11 05:48:22;;;;;;;5.37;4.87;;;22.50;1.00;;;;;;5075800;28;20953;-70
2021/06/11 05:50:49;;;;;;;5.43;4.93;;;22.60;1.00;;;;;;5075831;28;20968;-70
2021/06/11 05:53:22;;;;;;;6.27;4.63;;;22.60;1.00;;;;;;5076757;28;20930;-69
2021/06/11 05:55:48;;;;;;;6.73;4.70;;;22.70;1.00;;;;;;5076158;28;20446;-70
2021/06/11 05:58:15;;;;;;;6.13;4.47;;;22.70;1.00;;;;;;5076428;28;20501;-69
2021/06/11 06:00:41;;;;;;;6.20;4.60;;;22.70;1.00;;;;;;5076073;28;20458;-69
2021/06/11 06:03:07;;;;;;;4.87;4.47;;;22.70;1.00;;;;;;5076182;28;20458;-70
2021/06/11 06:05:34;;;;;;;4.63;4.23;;;22.80;1.00;;;;;;5076118;28;20458;-70
2021/06/11 06:08:00;;;;;;;9.07;4.87;;;22.80;1.00;;;;;;5075901;28;20460;-70
2021/06/11 06:10:28;;;;;;;5.00;4.60;;;22.80;1.00;;;;;;5075719;28;20514;-70
2021/06/11 06:12:54;;;;;;;4.97;4.30;;;22.80;1.00;;;;;;5075826;28;20465;-70
2021/06/11 06:15:20;;;;;;;5.33;4.83;;;22.90;1.00;;;;;;5075047;28;20458;-70
2021/06/11 06:17:46;;;;;;;6.30;5.70;;;22.90;1.00;;;;;;5075779;28;20478;-70
2021/06/11 06:20:14;;;;;;;5.07;4.67;;;23.00;1.00;;;;;;5075575;28;20469;-70
2021/06/11 06:22:41;;;;;;;5.10;4.30;;;23.00;1.00;;;;;;5075831;28;20515;-70
2021/06/11 06:25:09;;;;;;;5.17;4.77;;;23.10;1.00;;;;;;5075015;28;20917;-70
2021/06/11 06:27:38;;;;;;;6.70;5.40;;;23.10;1.00;;;;;;5074804;28;20450;-70
2021/06/11 06:30:04;;;;;;;5.10;4.60;;;23.10;1.00;;;;;;5075484;28;20902;-70
2021/06/11 06:32:31;;;;;;;7.93;4.80;;;23.20;1.00;;;;;;5074942;28;20930;-70
2021/06/11 06:34:57;;;;;;;4.60;4.20;;;23.20;1.00;;;;;;5075157;28;20545;-70
2021/06/11 06:37:23;;;;;;;5.40;4.90;;;23.30;1.00;;;;;;5075192;28;20505;-70
2021/06/11 06:39:51;;;;;;;6.17;5.57;;;23.30;1.00;;;;;;5075922;28;20478;-70
2021/06/11 06:42:18;;;;;;;6.50;5.90;;;23.40;1.00;;;;;;5075870;28;20667;-70
2021/06/11 06:44:46;;;;;;;9.13;5.87;;;23.50;1.00;;;;;;5074615;28;20458;-70
2021/06/11 06:47:12;;;;;;;5.70;5.07;;;23.60;1.00;;;;;;5075230;28;20469;-71
2021/06/11 06:49:39;;;;;;;5.77;5.27;;;23.60;1.00;;;;;;5075252;28;20454;-69
2021/06/11 06:52:06;;;;;;;8.33;5.37;;;23.70;1.00;;;;;;5075225;28;20458;-70
2021/06/11 06:54:33;;;;;;;5.20;4.57;;;23.70;1.00;;;;;;5075113;28;20465;-69
2021/06/11 06:56:59;;;;;;;5.77;5.33;;;23.80;1.00;;;;;;5075081;28;20565;-70
2021/06/11 06:59:26;;;;;;;5.63;5.13;;;23.80;1.00;;;;;;5075308;28;20782;-70
2021/06/11 07:01:57;;;;;;;6.20;5.60;;;23.90;1.00;;;;;;5074923;28;20466;-70
2021/06/11 07:04:23;;;;;;;5.90;4.87;;;24.00;1.00;;;;;;5075089;28;20439;-69
2021/06/11 07:06:50;;;;;;;6.40;4.40;;;24.00;1.00;;;;;;5075348;28;20450;-69
2021/06/11 07:09:16;;;;;;;6.43;5.83;;;24.20;1.00;;;;;;5074886;28;20945;-70
2021/06/11 07:11:42;;;;;;;5.73;5.17;;;24.20;1.00;;;;;;5075131;28;20733;-70
2021/06/11 07:14:09;;;;;;;5.90;5.50;;;24.30;1.00;;;;;;5074795;28;20531;-70
2021/06/11 07:16:35;;;;;;;5.60;5.10;;;24.40;1.00;;;;;;5074784;28;20539;-70
2021/06/11 07:19:03;;;;;;;10.30;5.57;;;24.40;1.00;;;;;;5074950;28;20465;-69
2021/06/11 07:21:29;;;;;;;6.03;5.50;;;24.40;1.00;;;;;;5074798;28;20458;-69
2021/06/11 07:23:55;;;;;;;7.13;6.50;;;24.50;1.00;;;;;;5074551;28;20497;-69
2021/06/11 07:26:21;;;;;;;6.33;5.63;;;24.50;1.00;;;;;;5074628;28;20449;-70
2021/06/11 07:28:48;;;;;;;6.67;6.07;;;24.50;1.00;;;;;;5074620;28;20535;-70
2021/06/11 07:31:14;;;;;;;8.27;6.20;;;24.50;1.00;;;;;;5074734;28;20462;-69
2021/06/11 07:33:40;;;;;;;6.70;5.40;;;24.60;1.00;;;;;;5074259;28;20930;-70
2021/06/11 07:36:08;;;;;;;6.73;5.17;;;24.60;1.00;;;;;;5074486;28;20455;-71
2021/06/11 07:38:34;;;;;;;5.30;4.80;;;24.60;1.00;;;;;;5075533;28;20457;-70
2021/06/11 07:41:01;;;;;;;4.60;4.30;;;24.60;1.00;;;;;;5078555;28;20875;-70
2021/06/11 07:43:27;;;;;;;7.17;4.70;;;24.70;1.00;;;;;;5078432;28;20462;-69
2021/06/11 07:45:54;;;;;;;6.50;5.67;;;24.70;1.00;;;;;;5078617;28;20473;-70
2021/06/11 07:48:20;;;;;;;6.50;5.30;;;24.80;1.00;;;;;;5078552;28;20991;-69
2021/06/11 07:50:47;;;;;;;6.70;5.33;;;24.80;1.00;;;;;;5078669;28;20468;-70
2021/06/11 07:53:15;;;;;;;6.40;5.80;;;24.80;1.00;;;;;;5078648;28;20495;-71
2021/06/11 07:55:41;;;;;;;8.07;5.93;;;24.80;1.00;;;;;;5078594;28;20937;-70
2021/06/11 07:58:07;;;;;;;7.93;5.93;;;24.90;1.00;;;;;;5078891;28;20496;-70
2021/06/11 08:00:34;;;;;;;7.00;6.40;;;24.90;1.00;;;;;;5078076;28;20458;-70
2021/06/11 08:03:01;;;;;;;6.40;5.40;;;24.90;1.00;;;;;;5078282;28;20458;-69
2021/06/11 08:05:28;;;;;;;7.10;6.40;;;24.90;1.00;;;;;;5078225;28;20458;-69
2021/06/11 08:07:55;;;;;;;5.90;5.40;;;24.90;1.00;;;;;;5078194;28;20450;-70
2021/06/11 08:10:23;;;;;;;8.93;4.97;;;25.00;1.00;;;;;;5078037;28;20454;-69
2021/06/11 08:12:49;;;;;;;6.67;6.07;;;25.00;1.00;;;;;;5077768;28;20945;-70
2021/06/11 08:15:15;;;;;;;9.87;6.90;;;25.00;1.00;;;;;;5077524;28;20461;-69
2021/06/11 08:17:41;;;;;;;6.30;5.90;;;25.00;1.00;;;;;;5077873;28;20485;-68
2021/06/11 08:20:09;;;;;;;5.77;5.27;;;25.00;1.00;;;;;;5077289;28;20473;-69
2021/06/11 08:22:36;;;;;;;6.10;5.40;;;24.90;1.00;;;;;;5076960;28;20481;-69
2021/06/11 08:25:03;;;;;;;6.10;5.50;;;24.90;1.00;;;;;;5077356;28;20468;-69
2021/06/11 08:27:31;;;;;;;6.07;5.47;;;24.90;1.00;;;;;;5077648;28;20469;-69
2021/06/11 08:29:57;;;;;;;5.70;5.20;;;25.00;1.00;;;;;;5077442;28;20462;-69
2021/06/11 08:32:23;;;;;;;5.60;5.10;;;25.00;1.00;;;;;;5077261;28;20767;-69
2021/06/11 08:34:50;;;;;;;6.43;5.47;;;25.10;1.00;;;;;;5077175;28;20923;-70
2021/06/11 08:37:16;;;;;;;5.50;4.93;;;25.10;1.00;;;;;;5077869;28;20559;-70
2021/06/11 08:39:42;;;;;;;5.67;5.20;;;25.20;1.00;;;;;;5077176;28;20483;-70
2021/06/11 08:42:09;;;;;;;6.50;6.00;;;25.20;1.00;;;;;;5077109;28;20458;-69
2021/06/11 08:44:37;;;;;;;6.27;5.70;;;25.20;1.00;;;;;;5077722;28;20458;-70
2021/06/11 08:47:04;;;;;;;6.77;6.20;;;25.20;1.00;;;;;;5076824;28;20450;-69
2021/06/11 08:49:30;;;;;;;6.60;6.10;;;25.10;1.00;;;;;;5076931;28;20458;-69
2021/06/11 08:51:59;;;;;;;5.70;5.30;;;25.20;1.00;;;;;;5077333;28;20933;-69
2021/06/11 08:54:26;;;;;;;6.23;5.00;;;25.30;1.00;;;;;;5077182;28;20772;-69
2021/06/11 08:56:53;;;;;;;5.83;4.30;;;25.30;1.00;;;;;;5076846;28;20489;-69
2021/06/11 08:59:19;;;;;;;5.97;5.50;;;25.40;1.00;;;;;;5077281;28;20454;-68
2021/06/11 09:01:48;;;;;;;4.67;4.37;;;25.40;1.00;;;;;;5077222;28;20469;-71
2021/06/11 09:04:15;;;;;;;5.17;4.67;;;25.40;1.00;;;;;;5076582;28;20464;-69
2021/06/11 09:06:41;;;;;;;5.47;4.97;;;25.50;1.00;;;;;;5076900;28;20779;-69
2021/06/11 09:09:08;;;;;;;5.50;4.70;;;25.60;1.00;;;;;;5076738;28;20458;-69
2021/06/11 09:11:36;;;;;;;4.60;4.20;;;25.60;1.00;;;;;;5076595;28;20528;-70
2021/06/11 09:14:04;;;;;;;3.90;3.57;;;25.60;1.00;;;;;;5076993;28;20504;-69
2021/06/11 09:16:42;;;;;;;4.30;4.00;;;25.70;1.00;;;;;;5076371;28;20485;-70
2021/06/11 09:19:13;;;;;;;8.33;4.20;;;25.70;1.00;;;;;;5076774;28;20474;-71
2021/06/11 09:21:42;;;;;;;4.77;3.50;;;25.80;1.00;;;;;;5076200;28;20891;-70
2021/06/11 09:24:16;;;;;;;4.27;3.73;;;25.70;1.00;;;;;;5076258;28;20482;-70
2021/06/11 09:26:43;;;;;;;4.77;3.80;;;25.70;1.00;;;;;;5076790;28;20438;-70
2021/06/11 09:29:21;;;;;;;6.60;4.70;;;25.70;1.00;;;;;;5076603;28;20466;-71
2021/06/11 09:31:48;;;;;;;4.60;4.20;;;25.80;1.00;;;;;;5076329;28;20450;-70
2021/06/11 09:34:23;;;;;;;3.70;3.40;;;25.90;1.00;;;;;;5076153;28;20461;-70
2021/06/11 09:37:01;;;;;;;3.97;3.67;;;26.00;1.00;;;;;;5076386;28;20489;-69
2021/06/11 09:39:49;;;;;;;5.83;3.50;;;26.00;1.00;;;;;;5076401;28;20462;-70
2021/06/11 09:42:17;;;;;;;3.27;3.07;;;26.00;1.00;;;;;;5076161;28;20882;-69
2021/06/11 09:44:51;;;;;;;4.80;3.00;;;26.00;1.00;;;;;;5075544;28;20926;-69
2021/06/11 09:47:33;;;;;;;5.97;3.90;;;26.00;1.00;;;;;;5076341;28;20477;-69
2021/06/11 09:50:06;;;;;;;8.83;3.90;;;26.10;1.00;;;;;;5076208;28;20876;-71
2021/06/11 09:52:35;;;;;;;5.03;3.50;;;26.20;1.00;;;;;;5076253;28;20449;-70
2021/06/11 09:55:05;;;;;;;3.87;3.00;;;26.20;1.00;;;;;;5076454;28;20454;-71
2021/06/11 09:57:34;;;;;;;3.10;2.90;;;26.20;1.00;;;;;;5076420;28;20535;-70
2021/06/11 10:00:00;;;;;;;3.53;3.23;;;26.20;1.00;;;;;;5076126;28;20477;-72
2021/06/11 10:02:31;;;;;;;3.33;3.13;;;26.30;1.00;;;;;;5075107;28;20462;-71
2021/06/11 10:04:58;;;;;;;3.60;3.30;;;26.30;1.00;;;;;;5076825;28;20443;-70
2021/06/11 10:07:25;;;;;;;4.20;3.20;;;26.40;1.00;;;;;;5076144;28;20458;-70
2021/06/11 10:09:52;;;;;;;3.33;3.03;;;26.40;1.00;;;;;;5076046;28;20462;-70
2021/06/11 10:12:18;;;;;;;3.30;3.10;;;26.40;1.00;;;;;;5075583;28;20469;-70
2021/06/11 10:14:45;;;;;;;4.37;2.77;;;26.50;1.00;;;;;;5075548;28;20474;-70
2021/06/11 10:17:11;;;;;;;3.27;2.97;;;26.60;1.00;;;;;;5075227;28;20996;-70
2021/06/11 10:19:38;;;;;;;3.00;2.73;;;26.60;1.00;;;;;;5075602;28;20454;-69
2021/06/11 10:22:06;;;;;;;4.43;2.97;;;26.50;1.00;;;;;;5075223;28;20474;-69
2021/06/11 10:24:34;;;;;;;3.70;2.27;;;26.50;1.00;;;;;;5075939;28;20470;-69
2021/06/11 10:27:01;;;;;;;5.53;2.10;;;26.60;1.00;;;;;;5076937;28;20461;-70
2021/06/11 10:29:28;;;;;;;3.00;2.70;;;26.60;1.00;;;;;;5076123;28;20458;-69
2021/06/11 10:31:55;;;;;;;2.80;2.60;;;26.80;1.00;;;;;;5075870;28;20465;-70
2021/06/11 10:34:41;;;;;;;2.80;2.60;;;26.80;1.00;;;;;;5075573;28;20469;-71
2021/06/11 10:37:34;;;;;;;2.97;2.50;;;26.80;1.00;;;;;;5075015;28;20489;-70
2021/06/11 10:40:22;;;;;;;2.70;2.50;;;26.80;1.00;;;;;;5075971;28;20454;-70
2021/06/11 10:42:49;;;;;;;9.30;5.70;;;26.70;1.00;;;;;;5075815;28;20443;-70
2021/06/11 10:45:41;;;;;;;2.90;2.40;;;26.70;1.00;;;;;;5076756;28;20461;-70
2021/06/11 10:48:08;;;;;;;4.23;2.40;;;26.70;1.00;;;;;;5077367;28;20442;-70
2021/06/11 10:50:36;;;;;;;2.30;2.20;;;26.70;1.00;;;;;;5076493;28;20455;-69
2021/06/11 10:53:13;;;;;;;1.90;1.80;;;26.70;1.00;;;;;;5075321;28;20457;-69
2021/06/11 10:55:51;;;;;;;4.20;2.57;;;26.70;1.00;;;;;;5075380;28;20449;-70
2021/06/11 10:58:25;;;;;;;2.60;2.40;;;26.80;1.00;;;;;;5075560;28;20462;-70
2021/06/11 11:00:52;;;;;;;2.30;2.10;;;26.90;1.00;;;;;;5075299;28;20452;-70
2021/06/11 11:03:32;;;;;;;3.00;2.70;;;27.10;1.00;;;;;;5075252;28;20462;-70
2021/06/11 11:06:19;;;;;;;2.80;2.30;;;27.20;1.00;;;;;;5074706;28;20836;-70
2021/06/11 11:08:53;;;;;;;4.33;2.93;;;27.20;1.00;;;;;;5074378;28;20465;-71
2021/06/11 11:11:31;;;;;;;3.10;2.80;;;27.10;1.00;;;;;;5075103;28;20454;-70
2021/06/11 11:13:58;;;;;;;4.07;2.73;;;27.20;1.00;;;;;;5075128;28;20622;-71
2021/06/11 11:16:26;;;;;;;4.87;2.23;;;27.30;1.00;;;;;;5075123;28;20464;-71
2021/06/11 11:18:53;;;;;;;3.20;3.00;;;27.60;1.00;;;;;;5075378;28;20910;-70
2021/06/11 11:21:25;;;;;;;4.43;2.60;;;27.90;1.00;;;;;;5075244;28;20508;-70
2021/06/11 11:23:54;;;;;;;2.67;2.47;;;28.20;1.00;;;;;;5074777;28;20489;-70
2021/06/11 11:26:37;;;;;;;2.00;1.90;;;28.50;1.00;;;;;;5074765;28;20469;-70
2021/06/11 11:29:03;;;;;;;6.20;2.33;;;28.90;1.00;;;;;;5075131;28;20446;-70
2021/06/11 11:31:29;;;;;;;2.40;2.20;;;28.80;1.00;;;;;;5074775;28;20464;-70
2021/06/11 11:33:56;;;;;;;1.57;1.40;;;28.50;1.00;;;;;;5074912;28;20519;-70
2021/06/11 11:36:23;;;;;;;1.90;1.80;;;28.60;1.00;;;;;;5074946;28;20825;-70
2021/06/11 11:38:50;;;;;;;10.73;2.10;;;29.20;1.00;;;;;;5074619;28;20454;-70
2021/06/11 11:41:21;;;;;;;2.20;1.67;;;29.90;1.00;;;;;;5074525;28;20783;-70
2021/06/11 11:43:47;;;;;;;6.30;2.40;;;30.20;1.00;;;;;;5074889;28;20503;-69
2021/06/11 11:46:14;;;;;;;1.80;1.70;;;30.40;1.00;;;;;;5075361;28;20450;-69
2021/06/11 11:48:40;;;;;;;2.60;2.23;;;30.90;1.00;;;;;;5074512;28;20450;-71
2021/06/11 11:51:07;;;;;;;5.40;2.30;;;31.40;1.00;;;;;;5074627;28;20538;-70
2021/06/11 11:53:33;;;;;;;5.83;2.17;;;31.50;1.00;;;;;;5074238;28;20523;-70
2021/06/11 11:55:59;;;;;;;2.63;1.90;;;31.40;1.00;;;;;;5074533;28;20454;-71
2021/06/11 11:58:27;;;;;;;4.00;2.13;;;31.60;1.00;;;;;;5074288;28;20489;-70
2021/06/11 12:00:54;;;;;;;2.93;1.77;;;32.20;1.00;;;;;;5074317;28;20462;-70
2021/06/11 12:03:20;;;;;;;3.30;1.90;;;32.20;1.00;;;;;;5074788;28;20802;-68
2021/06/11 12:05:47;;;;;;;2.20;1.60;;;32.40;1.00;;;;;;5075083;28;20511;-70
2021/06/11 12:08:16;;;;;;;2.37;1.60;;;32.50;1.00;;;;;;5074330;28;20472;-69
2021/06/11 12:10:42;;;;;;;2.77;1.90;;;32.30;1.00;;;;;;5073775;28;20454;-71
2021/06/11 12:13:09;;;;;;;5.30;2.03;;;32.10;1.00;;;;;;5075070;28;20462;-68
2021/06/11 12:15:39;;;;;;;2.70;1.87;;;31.80;1.00;;;;;;5074231;28;20458;-71
2021/06/11 12:18:05;;;;;;;2.30;1.53;;;31.40;1.00;;;;;;5074220;28;20478;-71
2021/06/11 12:20:33;;;;;;;2.90;1.50;;;31.10;1.00;;;;;;5074547;28;20458;-71
2021/06/11 12:23:02;;;;;;;2.17;1.90;;;31.10;1.00;;;;;;5074089;28;20494;-70
2021/06/11 12:25:28;;;;;;;6.17;1.70;;;31.10;1.00;;;;;;5078344;28;20484;-72
2021/06/11 12:27:54;;;;;;;1.77;1.60;;;31.10;1.00;;;;;;5078290;28;20446;-70
2021/06/11 12:30:22;;;;;;;1.50;1.40;;;30.90;1.00;;;;;;5078845;28;20462;-69
2021/06/11 12:32:49;;;;;;;4.50;1.47;;;30.70;1.00;;;;;;5079145;28;20806;-70
2021/06/11 12:35:16;;;;;;;1.27;1.17;;;30.50;1.00;;;;;;5083621;28;20549;-69
2021/06/11 12:37:42;;;;;;;1.30;1.10;;;30.30;1.00;;;;;;5089246;28;20474;-70
2021/06/11 12:40:10;;;;;;;3.33;1.50;;;30.60;1.00;;;;;;5086867;28;20549;-69
2021/06/11 12:42:38;;;;;;;2.57;1.60;;;30.90;1.00;;;;;;5090623;28;20492;-69
2021/06/11 12:45:07;;;;;;;2.57;1.50;;;31.00;1.00;;;;;;5089714;28;20454;-69
2021/06/11 12:47:34;;;;;;;5.50;1.60;;;31.60;1.00;;;;;;5091849;28;20461;-70
2021/06/11 12:50:02;;;;;;;1.50;1.40;;;32.20;1.00;;;;;;5090534;28;20450;-68
2021/06/11 12:52:28;;;;;;;2.60;1.83;;;32.70;1.00;;;;;;5085993;28;20462;-70
2021/06/11 12:54:54;;;;;;;1.70;1.60;;;32.30;1.00;;;;;;5085604;28;20450;-69
2021/06/11 12:57:22;;;;;;;5.53;1.60;;;31.90;1.00;;;;;;5084592;28;20790;-70
2021/06/11 12:59:49;;;;;;;4.10;1.77;;;31.90;1.00;;;;;;5087893;28;20454;-69
2021/06/11 13:02:16;;;;;;;1.63;1.53;;;32.30;1.00;;;;;;5080136;28;20465;-69